Aviation Digital Data Service (ADDS)

Output produced by METARs form (1351 UTC 24 November 2014)
found at http://aviationweather.gov/adds/metars/
 
KFRG 241342Z 21017G23KT 3SM BR OVC004 16/15 A2973 RMK AO2 PK WND 19029/1258 RAB1255E06 P0000 T01610150
KFRG 241253Z 19022G31KT 4SM BR OVC005 17/15 A2972 RMK AO2 PK WND 17034/1157 RAE44 SLP065 P0002 T01670150
KISP 241256Z 19018G24KT 2SM -RA BR OVC003 16/14 A2972 RMK AO2 PK WND 17039/1231 SFC VIS 5 SLP065 P0009 T01610144
KISP 241139Z 2412/2512 18022G39KT 5SM -SHRA BR OVC005 WS020/19055KT 
     FM241600 19018G32KT 6SM BR BKN006 BKN012 
     FM241900 18020G33KT 6SM BR SCT012 OVC020 
     FM250000 21014G23KT 5SM BR SCT012 OVC020 
     FM250600 23010G18KT P6SM SCT020 BKN250 
     FM250900 24007KT P6SM FEW020 BKN250
       
KJFK 241335Z 18020G27KT 6SM BR BKN005 BKN014 BKN032 15/14 A2972 RMK AO2 PK WND 18030/1316 RAE1259 P0000 $
KJFK 241323Z 18019G30KT 6SM BR SCT005 BKN014 OVC027 15/14 A2971 RMK AO2 PK WND 18030/1316 RAE1259 P0000 $
KJFK 241304Z 18022G29KT 6SM BR SCT005 BKN018 BKN023 BKN250 15/13 A2971 RMK AO2 PK WND 18029/1259 RAE1259 P0000 $
KJFK 241139Z 2412/2518 18028G39KT 6SM -SHRA BR OVC009 WS020/20055KT 
     FM241500 19020G30KT P6SM BKN012 
     FM242000 19018G30KT P6SM SCT012 BKN020 
     FM250400 22014G23KT P6SM SCT020 BKN250 
     FM250900 25010KT P6SM FEW020 BKN250 
     FM251400 27013G21KT P6SM BKN250
       
KBDR 241252Z 19018G25KT 9SM -RA OVC013 16/15 A2973 RMK AO2 PK WND 18033/1153 SLP066 P0008 T01610150
KBDR 241146Z 2412/2512 18022G32KT 5SM -SHRA BR OVC015 WS020/19050KT 
     FM241600 19020G30KT 6SM BR OVC015 WS020/21045KT 
     FM241800 20015G28KT P6SM BKN015 
     FM250000 22012G21KT 5SM BR SCT010 OVC020 
     FM250600 23009KT P6SM SCT020 BKN250 
     FM250900 25005KT P6SM FEW020 BKN250